sensor_id;sensor_type;location;lat;lon;timestamp;pressure;altitude;pressure_sealevel;temperature;humidity
39223;BME280;24936;46.328;11.026;2023-02-18T00:00:25;95447.63;;;-0.97;80.51
39223;BME280;24936;46.328;11.026;2023-02-18T00:02:51;95446.84;;;-0.99;80.42
39223;BME280;24936;46.328;11.026;2023-02-18T00:05:16;95453.75;;;-0.99;80.59
39223;BME280;24936;46.328;11.026;2023-02-18T00:07:41;95451.88;;;-0.66;79.88
39223;BME280;24936;46.328;11.026;2023-02-18T00:10:11;95449.50;;;-0.45;77.93
39223;BME280;24936;46.328;11.026;2023-02-18T00:12:37;95435.06;;;-0.25;77.60
39223;BME280;24936;46.328;11.026;2023-02-18T00:15:03;95441.13;;;-0.53;78.28
39223;BME280;24936;46.328;11.026;2023-02-18T00:17:29;95443.91;;;-0.59;78.63
39223;BME280;24936;46.328;11.026;2023-02-18T00:19:54;95446.00;;;-0.17;77.14
39223;BME280;24936;46.328;11.026;2023-02-18T00:22:21;95437.50;;;-0.48;77.09
39223;BME280;24936;46.328;11.026;2023-02-18T00:24:47;95443.63;;;-0.77;78.48
39223;BME280;24936;46.328;11.026;2023-02-18T00:27:12;95434.03;;;-0.47;77.83
39223;BME280;24936;46.328;11.026;2023-02-18T00:29:38;95425.41;;;-0.74;77.60
39223;BME280;24936;46.328;11.026;2023-02-18T00:32:03;95426.81;;;-1.20;78.81
39223;BME280;24936;46.328;11.026;2023-02-18T00:34:29;95417.75;;;-1.05;79.82
39223;BME280;24936;46.328;11.026;2023-02-18T00:36:54;95410.84;;;-1.05;79.53
39223;BME280;24936;46.328;11.026;2023-02-18T00:39:19;95406.47;;;-1.03;79.79
39223;BME280;24936;46.328;11.026;2023-02-18T00:41:45;95410.72;;;-1.02;79.45
39223;BME280;24936;46.328;11.026;2023-02-18T00:44:11;95409.84;;;-1.01;79.54
39223;BME280;24936;46.328;11.026;2023-02-18T00:46:37;95412.75;;;-0.83;79.33
39223;BME280;24936;46.328;11.026;2023-02-18T00:49:03;95404.63;;;-0.71;78.41
39223;BME280;24936;46.328;11.026;2023-02-18T00:51:29;95402.75;;;-0.66;78.08
39223;BME280;24936;46.328;11.026;2023-02-18T00:53:55;95407.78;;;-0.63;77.98
39223;BME280;24936;46.328;11.026;2023-02-18T00:56:21;95400.25;;;-0.69;78.38
39223;BME280;24936;46.328;11.026;2023-02-18T00:58:48;95396.94;;;-0.74;78.95
39223;BME280;24936;46.328;11.026;2023-02-18T01:01:14;95400.41;;;-0.73;78.84
39223;BME280;24936;46.328;11.026;2023-02-18T01:03:41;95402.13;;;-0.74;78.31
39223;BME280;24936;46.328;11.026;2023-02-18T01:06:07;95405.72;;;-0.78;78.78
39223;BME280;24936;46.328;11.026;2023-02-18T01:08:33;95400.22;;;-0.96;79.15
39223;BME280;24936;46.328;11.026;2023-02-18T01:11:00;95400.56;;;-0.80;79.38
39223;BME280;24936;46.328;11.026;2023-02-18T01:13:25;95400.44;;;-0.75;78.62
39223;BME280;24936;46.328;11.026;2023-02-18T01:15:51;95394.34;;;-1.01;79.46
39223;BME280;24936;46.328;11.026;2023-02-18T01:18:17;95396.56;;;-1.18;80.29
39223;BME280;24936;46.328;11.026;2023-02-18T01:20:43;95402.69;;;-1.21;80.56
39223;BME280;24936;46.328;11.026;2023-02-18T01:23:09;95405.28;;;-1.21;80.76
39223;BME280;24936;46.328;11.026;2023-02-18T01:25:35;95397.13;;;-1.07;80.39
39223;BME280;24936;46.328;11.026;2023-02-18T01:28:01;95395.59;;;-1.14;80.29
39223;BME280;24936;46.328;11.026;2023-02-18T01:30:26;95392.22;;;-0.88;79.94
39223;BME280;24936;46.328;11.026;2023-02-18T01:32:52;95389.53;;;-1.13;80.35
39223;BME280;24936;46.328;11.026;2023-02-18T01:35:18;95390.94;;;-1.31;80.90
39223;BME280;24936;46.328;11.026;2023-02-18T01:37:45;95377.38;;;-1.38;81.42
39223;BME280;24936;46.328;11.026;2023-02-18T01:40:15;95383.78;;;-1.51;81.96
39223;BME280;24936;46.328;11.026;2023-02-18T01:42:41;95376.84;;;-1.49;81.98
39223;BME280;24936;46.328;11.026;2023-02-18T01:47:55;95378.44;;;-1.75;82.49
39223;BME280;24936;46.328;11.026;2023-02-18T01:50:20;95377.72;;;-1.80;82.94
39223;BME280;24936;46.328;11.026;2023-02-18T01:52:46;95373.28;;;-1.17;81.66
39223;BME280;24936;46.328;11.026;2023-02-18T01:55:11;95373.09;;;-1.39;81.79
39223;BME280;24936;46.328;11.026;2023-02-18T01:57:37;95371.41;;;-1.70;81.76
39223;BME280;24936;46.328;11.026;2023-02-18T02:00:07;95375.94;;;-1.78;82.17
39223;BME280;24936;46.328;11.026;2023-02-18T02:02:38;95363.56;;;-1.67;82.68
39223;BME280;24936;46.328;11.026;2023-02-18T02:05:05;95362.47;;;-1.58;82.74
39223;BME280;24936;46.328;11.026;2023-02-18T02:07:30;95352.28;;;-1.63;82.89
39223;BME280;24936;46.328;11.026;2023-02-18T02:09:57;95351.19;;;-1.56;81.99
39223;BME280;24936;46.328;11.026;2023-02-18T02:12:32;95353.19;;;-1.35;81.68
39223;BME280;24936;46.328;11.026;2023-02-18T02:27:02;95348.72;;;-1.02;79.00
39223;BME280;24936;46.328;11.026;2023-02-18T02:38:09;95346.16;;;-1.30;80.88
39223;BME280;24936;46.328;11.026;2023-02-18T02:40:45;95341.94;;;-1.33;80.78
39223;BME280;24936;46.328;11.026;2023-02-18T02:51:13;95330.84;;;-1.10;79.85
39223;BME280;24936;46.328;11.026;2023-02-18T02:53:41;95327.59;;;-1.15;79.83
39223;BME280;24936;46.328;11.026;2023-02-18T02:56:14;95327.34;;;-1.07;79.35
39223;BME280;24936;46.328;11.026;2023-02-18T02:58:41;95325.81;;;-1.41;80.14
39223;BME280;24936;46.328;11.026;2023-02-18T03:03:53;95330.09;;;-1.70;81.85
39223;BME280;24936;46.328;11.026;2023-02-18T03:11:20;95318.66;;;-1.61;81.93
39223;BME280;24936;46.328;11.026;2023-02-18T03:16:52;95317.22;;;-1.42;81.69
39223;BME280;24936;46.328;11.026;2023-02-18T03:19:30;95318.56;;;-1.30;81.22
39223;BME280;24936;46.328;11.026;2023-02-18T03:22:15;95316.78;;;-1.28;81.23
39223;BME280;24936;46.328;11.026;2023-02-18T03:24:48;95306.84;;;-1.13;80.41
39223;BME280;24936;46.328;11.026;2023-02-18T03:27:19;95314.19;;;-0.99;80.38
39223;BME280;24936;46.328;11.026;2023-02-18T03:29:48;95306.47;;;-1.01;79.95
39223;BME280;24936;46.328;11.026;2023-02-18T03:32:18;95308.84;;;-1.21;80.30
39223;BME280;24936;46.328;11.026;2023-02-18T03:34:48;95308.06;;;-1.25;81.31
39223;BME280;24936;46.328;11.026;2023-02-18T03:37:16;95309.75;;;-1.23;81.23
39223;BME280;24936;46.328;11.026;2023-02-18T03:39:45;95307.16;;;-1.23;81.55
39223;BME280;24936;46.328;11.026;2023-02-18T03:42:15;95294.66;;;-1.08;80.67
39223;BME280;24936;46.328;11.026;2023-02-18T03:44:40;95293.91;;;-1.12;80.96
39223;BME280;24936;46.328;11.026;2023-02-18T03:47:06;95293.13;;;-1.15;81.48
39223;BME280;24936;46.328;11.026;2023-02-18T03:52:49;95305.34;;;-1.47;82.94
39223;BME280;24936;46.328;11.026;2023-02-18T03:55:15;95307.03;;;-1.46;83.04
39223;BME280;24936;46.328;11.026;2023-02-18T03:57:41;95304.81;;;-1.30;82.38
39223;BME280;24936;46.328;11.026;2023-02-18T04:00:07;95292.69;;;-1.28;82.06
39223;BME280;24936;46.328;11.026;2023-02-18T04:02:32;95298.13;;;-1.38;82.24
39223;BME280;24936;46.328;11.026;2023-02-18T04:04:58;95298.94;;;-1.07;81.47
39223;BME280;24936;46.328;11.026;2023-02-18T04:07:23;95290.41;;;-1.11;81.35
39223;BME280;24936;46.328;11.026;2023-02-18T04:09:48;95295.13;;;-1.24;81.89
39223;BME280;24936;46.328;11.026;2023-02-18T04:12:14;95288.34;;;-1.26;81.98
39223;BME280;24936;46.328;11.026;2023-02-18T04:14:39;95290.25;;;-1.33;82.22
39223;BME280;24936;46.328;11.026;2023-02-18T04:17:05;95293.63;;;-1.59;82.93
39223;BME280;24936;46.328;11.026;2023-02-18T04:19:30;95292.69;;;-1.57;83.27
39223;BME280;24936;46.328;11.026;2023-02-18T04:21:55;95294.16;;;-1.48;82.64
39223;BME280;24936;46.328;11.026;2023-02-18T04:24:21;95286.41;;;-1.48;82.72
39223;BME280;24936;46.328;11.026;2023-02-18T04:26:46;95296.06;;;-1.55;82.47
39223;BME280;24936;46.328;11.026;2023-02-18T04:29:11;95288.97;;;-1.19;81.35
39223;BME280;24936;46.328;11.026;2023-02-18T04:31:37;95287.06;;;-1.14;81.24
39223;BME280;24936;46.328;11.026;2023-02-18T04:34:02;95294.91;;;-1.17;81.34
39223;BME280;24936;46.328;11.026;2023-02-18T04:36:28;95286.19;;;-1.13;81.20
39223;BME280;24936;46.328;11.026;2023-02-18T04:38:53;95283.56;;;-1.12;80.93
39223;BME280;24936;46.328;11.026;2023-02-18T04:41:18;95284.47;;;-1.41;81.58
39223;BME280;24936;46.328;11.026;2023-02-18T04:43:44;95285.19;;;-1.09;81.13
39223;BME280;24936;46.328;11.026;2023-02-18T04:46:09;95286.72;;;-1.30;81.50
39223;BME280;24936;46.328;11.026;2023-02-18T04:48:34;95285.19;;;-1.36;81.94
39223;BME280;24936;46.328;11.026;2023-02-18T04:51:01;95280.44;;;-0.95;80.18
39223;BME280;24936;46.328;11.026;2023-02-18T04:53:26;95284.22;;;-1.33;81.07
39223;BME280;24936;46.328;11.026;2023-02-18T04:55:52;95276.22;;;-1.52;82.05
39223;BME280;24936;46.328;11.026;2023-02-18T04:58:19;95276.38;;;-1.59;82.30
39223;BME280;24936;46.328;11.026;2023-02-18T05:00:45;95276.75;;;-1.70;82.67
39223;BME280;24936;46.328;11.026;2023-02-18T05:03:10;95275.84;;;-1.68;82.73
39223;BME280;24936;46.328;11.026;2023-02-18T05:05:36;95271.66;;;-1.73;82.73
39223;BME280;24936;46.328;11.026;2023-02-18T05:08:02;95278.03;;;-1.01;81.31
39223;BME280;24936;46.328;11.026;2023-02-18T05:10:27;95275.25;;;-1.21;80.24
39223;BME280;24936;46.328;11.026;2023-02-18T05:12:53;95283.25;;;-1.58;81.28
39223;BME280;24936;46.328;11.026;2023-02-18T05:15:18;95295.06;;;-1.79;82.51
39223;BME280;24936;46.328;11.026;2023-02-18T05:17:44;95283.94;;;-1.81;82.89
39223;BME280;24936;46.328;11.026;2023-02-18T05:20:10;95267.59;;;-1.51;82.15
39223;BME280;24936;46.328;11.026;2023-02-18T05:22:36;95280.41;;;-1.48;81.57
39223;BME280;24936;46.328;11.026;2023-02-18T05:25:01;95284.13;;;-1.59;81.68
39223;BME280;24936;46.328;11.026;2023-02-18T05:27:26;95277.41;;;-1.93;82.52
39223;BME280;24936;46.328;11.026;2023-02-18T05:29:52;95274.75;;;-1.90;82.76
39223;BME280;24936;46.328;11.026;2023-02-18T05:32:17;95265.78;;;-2.08;83.44
39223;BME280;24936;46.328;11.026;2023-02-18T05:34:43;95275.00;;;-1.99;83.82
39223;BME280;24936;46.328;11.026;2023-02-18T05:37:08;95275.81;;;-1.97;83.44
39223;BME280;24936;46.328;11.026;2023-02-18T05:39:33;95281.78;;;-1.95;83.60
39223;BME280;24936;46.328;11.026;2023-02-18T05:41:59;95282.72;;;-1.97;84.08
39223;BME280;24936;46.328;11.026;2023-02-18T05:44:24;95278.22;;;-1.91;83.57
39223;BME280;24936;46.328;11.026;2023-02-18T05:47:01;95278.81;;;-2.12;83.48
39223;BME280;24936;46.328;11.026;2023-02-18T05:49:28;95281.94;;;-2.01;84.14
39223;BME280;24936;46.328;11.026;2023-02-18T05:51:54;95287.59;;;-1.88;83.74
39223;BME280;24936;46.328;11.026;2023-02-18T05:54:20;95288.94;;;-1.75;83.50
39223;BME280;24936;46.328;11.026;2023-02-18T05:56:45;95281.53;;;-1.57;82.59
39223;BME280;24936;46.328;11.026;2023-02-18T05:59:11;95277.41;;;-1.93;82.92
39223;BME280;24936;46.328;11.026;2023-02-18T06:01:36;95278.91;;;-1.86;83.30
39223;BME280;24936;46.328;11.026;2023-02-18T06:04:02;95276.44;;;-1.89;83.04
39223;BME280;24936;46.328;11.026;2023-02-18T06:06:27;95272.53;;;-1.45;82.53
39223;BME280;24936;46.328;11.026;2023-02-18T06:08:53;95273.53;;;-1.49;81.73
39223;BME280;24936;46.328;11.026;2023-02-18T06:11:18;95280.34;;;-2.05;82.81
39223;BME280;24936;46.328;11.026;2023-02-18T06:13:43;95277.94;;;-1.53;82.76
39223;BME280;24936;46.328;11.026;2023-02-18T06:16:09;95287.53;;;-1.87;82.55
39223;BME280;24936;46.328;11.026;2023-02-18T06:18:34;95286.75;;;-1.89;83.51
39223;BME280;24936;46.328;11.026;2023-02-18T06:21:00;95286.25;;;-1.72;82.97
39223;BME280;24936;46.328;11.026;2023-02-18T06:23:25;95290.69;;;-1.75;82.99
39223;BME280;24936;46.328;11.026;2023-02-18T06:25:50;95293.50;;;-1.55;82.41
39223;BME280;24936;46.328;11.026;2023-02-18T06:28:16;95294.50;;;-1.32;82.15
39223;BME280;24936;46.328;11.026;2023-02-18T06:30:43;95293.50;;;-1.26;81.16
39223;BME280;24936;46.328;11.026;2023-02-18T06:33:08;95290.69;;;-1.75;82.40
39223;BME280;24936;46.328;11.026;2023-02-18T06:35:34;95290.69;;;-1.75;83.54
39223;BME280;24936;46.328;11.026;2023-02-18T06:37:59;95297.34;;;-1.68;83.34
39223;BME280;24936;46.328;11.026;2023-02-18T06:40:25;95289.13;;;-1.52;82.77
39223;BME280;24936;46.328;11.026;2023-02-18T06:42:50;95296.88;;;-1.52;82.83
39223;BME280;24936;46.328;11.026;2023-02-18T06:45:16;95296.16;;;-1.58;82.92
39223;BME280;24936;46.328;11.026;2023-02-18T06:47:41;95302.84;;;-1.50;82.99
39223;BME280;24936;46.328;11.026;2023-02-18T06:50:08;95291.75;;;-1.26;82.43
39223;BME280;24936;46.328;11.026;2023-02-18T06:52:33;95289.03;;;-1.49;82.75
39223;BME280;24936;46.328;11.026;2023-02-18T06:54:59;95297.44;;;-1.43;83.20
39223;BME280;24936;46.328;11.026;2023-02-18T06:57:25;95297.22;;;-1.08;82.22
39223;BME280;24936;46.328;11.026;2023-02-18T06:59:50;95297.16;;;-1.06;81.68
39223;BME280;24936;46.328;11.026;2023-02-18T07:02:16;95288.19;;;-0.95;81.62
39223;BME280;24936;46.328;11.026;2023-02-18T07:04:50;95292.44;;;-0.67;80.72
39223;BME280;24936;46.328;11.026;2023-02-18T07:07:15;95300.09;;;-0.38;79.27
39223;BME280;24936;46.328;11.026;2023-02-18T07:09:41;95294.78;;;-0.59;80.46
39223;BME280;24936;46.328;11.026;2023-02-18T07:12:06;95305.56;;;-0.73;82.04
39223;BME280;24936;46.328;11.026;2023-02-18T07:14:31;95303.06;;;-0.76;82.87
39223;BME280;24936;46.328;11.026;2023-02-18T07:16:57;95305.03;;;-0.56;81.86
39223;BME280;24936;46.328;11.026;2023-02-18T07:19:22;95295.88;;;-0.41;81.86
39223;BME280;24936;46.328;11.026;2023-02-18T07:21:48;95305.78;;;-0.28;80.93
39223;BME280;24936;46.328;11.026;2023-02-18T07:24:13;95304.28;;;-0.10;80.26
39223;BME280;24936;46.328;11.026;2023-02-18T07:26:39;95307.19;;;0.06;79.32
39223;BME280;24936;46.328;11.026;2023-02-18T07:29:04;95300.66;;;0.19;79.28
39223;BME280;24936;46.328;11.026;2023-02-18T07:31:29;95305.31;;;0.33;79.36
39223;BME280;24936;46.328;11.026;2023-02-18T07:33:55;95310.09;;;0.44;80.46
39223;BME280;24936;46.328;11.026;2023-02-18T07:36:20;95312.34;;;0.53;78.96
39223;BME280;24936;46.328;11.026;2023-02-18T07:38:46;95302.69;;;0.79;77.39
39223;BME280;24936;46.328;11.026;2023-02-18T07:41:18;95306.88;;;1.05;76.86
39223;BME280;24936;46.328;11.026;2023-02-18T07:43:44;95303.53;;;1.24;77.32
39223;BME280;24936;46.328;11.026;2023-02-18T07:46:09;95305.94;;;1.29;76.70
39223;BME280;24936;46.328;11.026;2023-02-18T07:48:35;95300.78;;;1.27;75.67
39223;BME280;24936;46.328;11.026;2023-02-18T07:51:05;95298.16;;;1.70;73.97
39223;BME280;24936;46.328;11.026;2023-02-18T07:53:30;95286.06;;;1.90;73.26
39223;BME280;24936;46.328;11.026;2023-02-18T07:55:57;95297.41;;;2.08;73.46
39223;BME280;24936;46.328;11.026;2023-02-18T07:58:29;95292.59;;;1.98;73.44
39223;BME280;24936;46.328;11.026;2023-02-18T08:00:55;95295.44;;;2.32;73.08
39223;BME280;24936;46.328;11.026;2023-02-18T08:03:22;95291.66;;;2.39;70.85
39223;BME280;24936;46.328;11.026;2023-02-18T08:05:49;95291.09;;;2.71;70.41
39223;BME280;24936;46.328;11.026;2023-02-18T08:08:17;95284.97;;;3.09;69.20
39223;BME280;24936;46.328;11.026;2023-02-18T08:10:45;95290.97;;;3.11;68.45
39223;BME280;24936;46.328;11.026;2023-02-18T08:13:11;95291.66;;;3.32;67.35
39223;BME280;24936;46.328;11.026;2023-02-18T08:15:38;95291.97;;;3.26;66.90
39223;BME280;24936;46.328;11.026;2023-02-18T08:18:03;95280.19;;;3.54;67.13
39223;BME280;24936;46.328;11.026;2023-02-18T08:20:29;95281.91;;;3.71;68.12
39223;BME280;24936;46.328;11.026;2023-02-18T08:22:54;95287.72;;;3.93;65.67
39223;BME280;24936;46.328;11.026;2023-02-18T08:25:20;95280.03;;;4.08;65.91
39223;BME280;24936;46.328;11.026;2023-02-18T08:27:45;95282.00;;;4.20;66.13
39223;BME280;24936;46.328;11.026;2023-02-18T08:30:11;95278.72;;;4.17;64.39
39223;BME280;24936;46.328;11.026;2023-02-18T08:32:36;95278.47;;;4.21;64.47
39223;BME280;24936;46.328;11.026;2023-02-18T08:35:02;95274.03;;;4.23;65.10
39223;BME280;24936;46.328;11.026;2023-02-18T08:37:28;95271.41;;;4.23;65.74
39223;BME280;24936;46.328;11.026;2023-02-18T08:39:54;95269.13;;;4.33;65.13
39223;BME280;24936;46.328;11.026;2023-02-18T08:42:20;95274.28;;;4.35;64.50
39223;BME280;24936;46.328;11.026;2023-02-18T08:44:54;95267.44;;;4.32;64.67
39223;BME280;24936;46.328;11.026;2023-02-18T08:47:20;95269.66;;;4.40;64.46
39223;BME280;24936;46.328;11.026;2023-02-18T08:49:45;95268.06;;;4.53;63.57
39223;BME280;24936;46.328;11.026;2023-02-18T08:52:10;95261.00;;;4.71;63.15
39223;BME280;24936;46.328;11.026;2023-02-18T08:54:36;95258.91;;;4.78;62.99
39223;BME280;24936;46.328;11.026;2023-02-18T08:57:01;95252.53;;;5.14;62.56
39223;BME280;24936;46.328;11.026;2023-02-18T08:59:26;95255.59;;;5.68;58.80
39223;BME280;24936;46.328;11.026;2023-02-18T09:01:52;95254.72;;;6.26;56.82
39223;BME280;24936;46.328;11.026;2023-02-18T09:04:18;95249.13;;;7.02;56.29
39223;BME280;24936;46.328;11.026;2023-02-18T09:06:46;95253.16;;;7.61;56.17
39223;BME280;24936;46.328;11.026;2023-02-18T09:09:11;95244.69;;;7.70;56.65
39223;BME280;24936;46.328;11.026;2023-02-18T09:11:37;95245.97;;;8.03;56.04
39223;BME280;24936;46.328;11.026;2023-02-18T09:14:02;95245.81;;;8.44;54.04
39223;BME280;24936;46.328;11.026;2023-02-18T09:16:28;95250.69;;;7.85;55.80
39223;BME280;24936;46.328;11.026;2023-02-18T09:18:55;95258.22;;;6.96;57.42
39223;BME280;24936;46.328;11.026;2023-02-18T09:21:20;95243.91;;;7.29;57.21
39223;BME280;24936;46.328;11.026;2023-02-18T09:23:48;95248.81;;;7.07;57.06
39223;BME280;24936;46.328;11.026;2023-02-18T09:26:16;95248.59;;;6.55;59.64
39223;BME280;24936;46.328;11.026;2023-02-18T09:28:42;95250.22;;;6.28;59.14
39223;BME280;24936;46.328;11.026;2023-02-18T09:31:11;95248.41;;;5.71;61.25
39223;BME280;24936;46.328;11.026;2023-02-18T09:33:39;95251.91;;;5.56;62.75
39223;BME280;24936;46.328;11.026;2023-02-18T09:36:06;95243.78;;;5.46;63.46
39223;BME280;24936;46.328;11.026;2023-02-18T09:38:32;95239.47;;;5.45;63.66
39223;BME280;24936;46.328;11.026;2023-02-18T09:40:59;95246.78;;;5.54;63.95
39223;BME280;24936;46.328;11.026;2023-02-18T09:45:55;95238.31;;;6.52;60.88
39223;BME280;24936;46.328;11.026;2023-02-18T09:48:27;95238.97;;;6.97;59.86
39223;BME280;24936;46.328;11.026;2023-02-18T09:50:54;95236.78;;;6.77;59.91
39223;BME280;24936;46.328;11.026;2023-02-18T09:53:20;95229.25;;;7.40;58.54
39223;BME280;24936;46.328;11.026;2023-02-18T09:55:47;95230.34;;;7.89;57.84
39223;BME280;24936;46.328;11.026;2023-02-18T09:58:14;95226.69;;;9.40;54.20
39223;BME280;24936;46.328;11.026;2023-02-18T10:00:43;95222.81;;;8.47;55.93
39223;BME280;24936;46.328;11.026;2023-02-18T10:03:21;95217.34;;;8.13;56.62
39223;BME280;24936;46.328;11.026;2023-02-18T10:05:58;95216.91;;;7.80;57.03
39223;BME280;24936;46.328;11.026;2023-02-18T10:08:25;95207.75;;;8.75;54.91
39223;BME280;24936;46.328;11.026;2023-02-18T10:10:52;95206.91;;;9.59;52.89
39223;BME280;24936;46.328;11.026;2023-02-18T10:13:23;95213.53;;;12.18;47.68
39223;BME280;24936;46.328;11.026;2023-02-18T10:15:50;95205.22;;;12.64;44.57
39223;BME280;24936;46.328;11.026;2023-02-18T10:18:26;95201.03;;;13.61;41.62
39223;BME280;24936;46.328;11.026;2023-02-18T10:20:57;95202.84;;;14.65;39.18
39223;BME280;24936;46.328;11.026;2023-02-18T10:23:26;95201.88;;;14.66;40.01
39223;BME280;24936;46.328;11.026;2023-02-18T10:25:54;95197.53;;;13.90;41.28
39223;BME280;24936;46.328;11.026;2023-02-18T10:28:24;95195.06;;;14.26;37.62
39223;BME280;24936;46.328;11.026;2023-02-18T10:30:56;95190.88;;;14.89;35.42
39223;BME280;24936;46.328;11.026;2023-02-18T10:33:32;95188.91;;;14.63;34.64
39223;BME280;24936;46.328;11.026;2023-02-18T10:44:36;95164.09;;;15.28;33.23
39223;BME280;24936;46.328;11.026;2023-02-18T10:47:15;95171.06;;;14.37;36.02
39223;BME280;24936;46.328;11.026;2023-02-18T10:49:59;95172.22;;;13.68;38.47
39223;BME280;24936;46.328;11.026;2023-02-18T10:52:29;95167.53;;;14.47;37.78
39223;BME280;24936;46.328;11.026;2023-02-18T10:55:09;95158.13;;;14.90;35.24
39223;BME280;24936;46.328;11.026;2023-02-18T10:57:45;95151.63;;;13.71;37.42
39223;BME280;24936;46.328;11.026;2023-02-18T11:00:23;95154.03;;;13.55;38.93
39223;BME280;24936;46.328;11.026;2023-02-18T11:03:14;95141.66;;;14.41;37.81
39223;BME280;24936;46.328;11.026;2023-02-18T11:05:42;95146.38;;;14.37;37.81
39223;BME280;24936;46.328;11.026;2023-02-18T11:08:10;95136.91;;;14.06;36.23
39223;BME280;24936;46.328;11.026;2023-02-18T11:10:41;95142.31;;;13.48;38.78
39223;BME280;24936;46.328;11.026;2023-02-18T11:13:09;95133.25;;;12.72;40.32
39223;BME280;24936;46.328;11.026;2023-02-18T11:15:36;95126.03;;;12.74;40.47
39223;BME280;24936;46.328;11.026;2023-02-18T11:18:28;95126.88;;;12.23;41.61
39223;BME280;24936;46.328;11.026;2023-02-18T11:21:00;95119.00;;;12.33;41.51
39223;BME280;24936;46.328;11.026;2023-02-18T11:23:25;95106.34;;;12.27;41.64
39223;BME280;24936;46.328;11.026;2023-02-18T11:25:54;95108.78;;;12.09;41.40
39223;BME280;24936;46.328;11.026;2023-02-18T11:28:27;95098.28;;;12.29;41.61
39223;BME280;24936;46.328;11.026;2023-02-18T11:30:55;95103.91;;;12.65;41.69
39223;BME280;24936;46.328;11.026;2023-02-18T11:33:53;95095.13;;;13.63;40.75
39223;BME280;24936;46.328;11.026;2023-02-18T11:36:30;95090.16;;;14.25;39.63
39223;BME280;24936;46.328;11.026;2023-02-18T11:39:02;95091.16;;;13.86;38.11
39223;BME280;24936;46.328;11.026;2023-02-18T11:41:38;95086.53;;;13.41;38.78
39223;BME280;24936;46.328;11.026;2023-02-18T11:44:07;95076.00;;;13.11;38.37
39223;BME280;24936;46.328;11.026;2023-02-18T11:47:17;95070.97;;;13.85;39.00
39223;BME280;24936;46.328;11.026;2023-02-18T11:49:59;95061.03;;;14.25;36.65
39223;BME280;24936;46.328;11.026;2023-02-18T11:52:26;95061.47;;;14.66;35.78
39223;BME280;24936;46.328;11.026;2023-02-18T11:57:30;95062.47;;;15.02;36.13
39223;BME280;24936;46.328;11.026;2023-02-18T11:59:56;95045.81;;;15.09;35.15
39223;BME280;24936;46.328;11.026;2023-02-18T12:02:33;95036.78;;;15.99;34.85
39223;BME280;24936;46.328;11.026;2023-02-18T12:05:23;95043.78;;;14.85;36.99
39223;BME280;24936;46.328;11.026;2023-02-18T12:08:14;95032.47;;;13.73;37.73
39223;BME280;24936;46.328;11.026;2023-02-18T12:10:52;95027.41;;;14.07;39.28
39223;BME280;24936;46.328;11.026;2023-02-18T12:27:19;95027.94;;;9.85;47.95
39223;BME280;24936;46.328;11.026;2023-02-18T12:33:14;95021.63;;;10.31;47.86
39223;BME280;24936;46.328;11.026;2023-02-18T12:41:12;95009.50;;;11.67;44.08
39223;BME280;24936;46.328;11.026;2023-02-18T12:49:14;94999.13;;;12.16;43.63
39223;BME280;24936;46.328;11.026;2023-02-18T12:57:42;94970.75;;;14.00;39.00
39223;BME280;24936;46.328;11.026;2023-02-18T13:06:16;94971.19;;;14.60;39.85
39223;BME280;24936;46.328;11.026;2023-02-18T13:09:16;94962.09;;;13.80;39.93
39223;BME280;24936;46.328;11.026;2023-02-18T13:14:48;94950.09;;;12.43;44.03
39223;BME280;24936;46.328;11.026;2023-02-18T13:17:19;94951.78;;;12.44;43.30
39223;BME280;24936;46.328;11.026;2023-02-18T13:19:46;94944.13;;;12.12;44.95
39223;BME280;24936;46.328;11.026;2023-02-18T13:22:15;94937.44;;;12.27;45.25
39223;BME280;24936;46.328;11.026;2023-02-18T13:24:44;94935.47;;;13.26;42.75
39223;BME280;24936;46.328;11.026;2023-02-18T13:33:28;94925.94;;;13.99;41.29
39223;BME280;24936;46.328;11.026;2023-02-18T13:38:55;94921.19;;;14.38;40.38
39223;BME280;24936;46.328;11.026;2023-02-18T13:41:20;94920.91;;;14.86;38.81
39223;BME280;24936;46.328;11.026;2023-02-18T13:43:46;94921.72;;;14.06;40.79
39223;BME280;24936;46.328;11.026;2023-02-18T13:46:16;94921.88;;;14.22;39.25
39223;BME280;24936;46.328;11.026;2023-02-18T13:51:27;94910.44;;;13.86;41.46
39223;BME280;24936;46.328;11.026;2023-02-18T13:53:58;94915.28;;;14.27;41.06
39223;BME280;24936;46.328;11.026;2023-02-18T13:56:31;94914.78;;;14.23;41.16
39223;BME280;24936;46.328;11.026;2023-02-18T14:01:48;94913.00;;;12.45;44.54
39223;BME280;24936;46.328;11.026;2023-02-18T14:04:47;94908.44;;;12.17;45.35
39223;BME280;24936;46.328;11.026;2023-02-18T14:07:37;94905.19;;;13.20;43.58
39223;BME280;24936;46.328;11.026;2023-02-18T14:17:47;94905.25;;;12.04;45.87
39223;BME280;24936;46.328;11.026;2023-02-18T14:22:47;94907.78;;;11.55;48.64
39223;BME280;24936;46.328;11.026;2023-02-18T14:27:50;94908.56;;;11.45;49.98
39223;BME280;24936;46.328;11.026;2023-02-18T14:30:24;94912.91;;;11.56;50.64
39223;BME280;24936;46.328;11.026;2023-02-18T14:32:57;94903.06;;;11.78;50.85
39223;BME280;24936;46.328;11.026;2023-02-18T14:35:37;94899.38;;;12.00;50.93
39223;BME280;24936;46.328;11.026;2023-02-18T14:40:57;94903.44;;;12.14;50.64
39223;BME280;24936;46.328;11.026;2023-02-18T14:51:33;94889.78;;;11.19;52.67
39223;BME280;24936;46.328;11.026;2023-02-18T14:54:03;94891.47;;;11.40;52.72
39223;BME280;24936;46.328;11.026;2023-02-18T14:56:30;94882.53;;;11.62;52.38
39223;BME280;24936;46.328;11.026;2023-02-18T14:58:59;94882.44;;;11.23;53.28
39223;BME280;24936;46.328;11.026;2023-02-18T15:01:32;94886.44;;;10.86;53.70
39223;BME280;24936;46.328;11.026;2023-02-18T15:03:57;94886.47;;;10.96;53.47
39223;BME280;24936;46.328;11.026;2023-02-18T15:06:30;94882.66;;;11.10;53.62
39223;BME280;24936;46.328;11.026;2023-02-18T15:08:57;94882.28;;;10.83;53.81
39223;BME280;24936;46.328;11.026;2023-02-18T15:11:35;94875.75;;;11.19;52.37
39223;BME280;24936;46.328;11.026;2023-02-18T15:14:08;94878.28;;;11.30;52.51
39223;BME280;24936;46.328;11.026;2023-02-18T15:16:35;94877.59;;;11.28;52.96
39223;BME280;24936;46.328;11.026;2023-02-18T15:19:02;94875.59;;;11.10;53.66